Latest Weather Observations for Wattamolla

IDN60901

Issued at 12:41 pm EST Monday 24 July 2017 (issued every 10 minutes, with the page automatically refreshed every 10 minutes)

About weather observations | Map of Sydney area stations | Latest observations for Sydney area | Other Formats
Station Details ID: 066208 Name: WATTAMOLLA AWS Lat: -34.14 Lon: 151.12 Height: 44.0 m
Data from the previous 72 hours. | See also: Recent months for locations in New South Wales
Date/Time
EST
Temp
°C
App
Temp
°C
Dew
Point
°C
Rel
Hum
%
Delta-T
°C
Wind Press
QNH
hPa
Press
MSL
hPa
Rain since
9am
mm
Dir  Spd
km/h
Gust
km/h
Spd
kts
Gust
kts
24/12:30pm - - - - - SW 15 26 8 14 - - -
24/12:00pm - - - - - WSW 20 32 11 17 - - -
24/11:30am - - - - - WSW 22 37 12 20 - - -
24/11:00am - - - - - WSW 26 37 14 20 - - -
24/10:30am - - - - - WSW 17 30 9 16 - - -
24/10:00am - - - - - W 17 28 9 15 - - -
24/09:30am - - - - - WSW 17 24 9 13 - - -
24/09:00am - - - - - SW 11 15 6 8 - - -
24/08:30am - - - - - SW 9 13 5 7 - - -
24/08:00am - - - - - W 13 19 7 10 - - -
24/07:30am - - - - - W 11 19 6 10 - - -
24/07:00am - - - - - NW 15 19 8 10 - - -
24/06:30am - - - - - NW 15 17 8 9 - - -
24/06:00am - - - - - WSW 15 19 8 10 - - -
24/05:30am - - - - - W 9 13 5 7 - - -
24/05:00am - - - - - WSW 13 15 7 8 - - -
24/04:30am - - - - - WNW 7 13 4 7 - - -
24/04:00am - - - - - W 11 13 6 7 - - -
24/03:30am - - - - - W 13 17 7 9 - - -
24/03:00am - - - - - NW 15 19 8 10 - - -
24/02:30am - - - - - W 15 22 8 12 - - -
24/02:00am - - - - - NW 13 19 7 10 - - -
24/01:30am - - - - - WNW 11 15 6 8 - - -
24/01:00am - - - - - W 17 19 9 10 - - -
24/12:30am - - - - - WSW 11 15 6 8 - - -
24/12:00am - - - - - W 15 19 8 10 - - -
 
Date/Time
EST
Temp
°C
App
Temp
°C
Dew
Point
°C
Rel
Hum
%
Delta-T
°C
Wind Press
QNH
hPa
Press
MSL
hPa
Rain since
9am
mm
Dir  Spd
km/h
Gust
km/h
Spd
kts
Gust
kts
23/11:30pm - - - - - NW 15 22 8 12 - - -
23/11:00pm - - - - - NNE 9 11 5 6 - - -
23/10:30pm - - - - - NE 7 9 4 5 - - -
23/10:00pm - - - - - N 9 11 5 6 - - -
23/09:30pm - - - - - NNW 11 20 6 11 - - -
23/09:00pm - - - - - WNW 24 39 13 21 - - -
23/08:30pm - - - - - NW 15 19 8 10 - - -
23/08:00pm - - - - - WNW 17 19 9 10 - - -
23/07:30pm - - - - - WNW 19 22 10 12 - - -
23/07:00pm - - - - - NW 15 19 8 10 - - -
23/06:30pm - - - - - NW 15 19 8 10 - - -
23/06:00pm - - - - - NNW 17 19 9 10 - - -
23/05:30pm - - - - - NNW 13 17 7 9 - - -
23/05:00pm - - - - - NNW 11 13 6 7 - - -
23/04:30pm - - - - - N 11 15 6 8 - - -
23/04:00pm - - - - - NNW 9 13 5 7 - - -
23/03:30pm - - - - - NW 13 28 7 15 - - -
23/03:00pm - - - - - NNW 19 32 10 17 - - -
23/02:30pm - - - - - NW 19 32 10 17 - - -
23/02:00pm - - - - - NW 24 35 13 19 - - -
23/01:30pm - - - - - WNW 26 39 14 21 - - -
23/01:00pm - - - - - NW 17 28 9 15 - - -
23/12:30pm - - - - - W 19 32 10 17 - - -
23/12:00pm - - - - - W 20 33 11 18 - - -
23/11:30am - - - - - WSW 17 30 9 16 - - -
23/11:00am - - - - - WSW 11 19 6 10 - - -
23/10:30am - - - - - W 13 26 7 14 - - -
23/10:00am - - - - - W 20 41 11 22 - - -
23/09:30am - - - - - SW 17 26 9 14 - - -
23/09:00am - - - - - SE 6 11 3 6 - - -
23/08:30am - - - - - NNW 7 11 4 6 - - -
23/08:00am - - - - - N 11 15 6 8 - - -
23/07:30am - - - - - NNW 17 19 9 10 - - -
23/07:00am - - - - - NNW 17 20 9 11 - - -
23/06:30am - - - - - NNW 15 17 8 9 - - -
23/06:00am - - - - - NNW 15 17 8 9 - - -
23/05:30am - - - - - NW 11 13 6 7 - - -
23/05:00am - - - - - WNW 13 13 7 7 - - -
23/04:30am - - - - - NW 13 15 7 8 - - -
23/04:00am - - - - - NW 15 17 8 9 - - -
23/03:30am - - - - - NW 13 17 7 9 - - -
23/03:00am - - - - - NNW 15 17 8 9 - - -
23/02:30am - - - - - NW 13 15 7 8 - - -
23/02:00am - - - - - WNW 15 17 8 9 - - -
23/01:30am - - - - - WNW 15 17 8 9 - - -
23/01:00am - - - - - WNW 17 19 9 10 - - -
23/12:30am - - - - - WNW 20 24 11 13 - - -
23/12:00am - - - - - WNW 17 19 9 10 - - -
 
Date/Time
EST
Temp
°C
App
Temp
°C
Dew
Point
°C
Rel
Hum
%
Delta-T
°C
Wind Press
QNH
hPa
Press
MSL
hPa
Rain since
9am
mm
Dir  Spd
km/h
Gust
km/h
Spd
kts
Gust
kts
22/11:30pm - - - - - WNW 19 26 10 14 - - -
22/11:00pm - - - - - WNW 15 19 8 10 - - -
22/10:30pm - - - - - WNW 17 20 9 11 - - -
22/10:00pm - - - - - WNW 19 22 10 12 - - -
22/09:30pm - - - - - WNW 24 30 13 16 - - -
22/09:00pm - - - - - NW 24 26 13 14 - - -
22/08:30pm - - - - - NW 17 17 9 9 - - -
22/08:00pm - - - - - NW 19 19 10 10 - - -
22/07:30pm - - - - - NW 17 17 9 9 - - -
22/07:00pm - - - - - NW 17 20 9 11 - - -
22/06:30pm - - - - - NW 19 22 10 12 - - -
22/06:00pm - - - - - NW 17 19 9 10 - - -
22/05:30pm - - - - - NW 15 17 8 9 - - -
22/05:00pm - - - - - NNW 11 13 6 7 - - -
22/04:30pm - - - - - NNW 11 13 6 7 - - -
22/04:00pm - - - - - NNW 9 13 5 7 - - -
22/03:30pm - - - - - NW 13 20 7 11 - - -
22/03:00pm - - - - - NW 11 17 6 9 - - -
22/02:30pm - - - - - NW 11 17 6 9 - - -
22/02:00pm - - - - - NW 11 19 6 10 - - -
22/01:30pm - - - - - NW 15 22 8 12 - - -
22/01:00pm - - - - - NW 15 20 8 11 - - -
22/12:30pm - - - - - NW 15 22 8 12 - - -
22/12:00pm - - - - - NNW 13 22 7 12 - - -
22/11:30am - - - - - NW 17 24 9 13 - - -
22/11:00am - - - - - NNW 15 26 8 14 - - -
22/10:30am - - - - - NNW 15 24 8 13 - - -
22/10:00am - - - - - NW 13 19 7 10 - - -
22/09:30am - - - - - WNW 17 26 9 14 - - -
22/09:00am - - - - - WNW 13 19 7 10 - - -
22/08:30am - - - - - WNW 15 22 8 12 - - -
22/08:00am - - - - - WNW 20 26 11 14 - - -
22/07:30am - - - - - WNW 17 22 9 12 - - -
22/07:00am - - - - - WNW 17 22 9 12 - - -
22/06:30am - - - - - W 26 35 14 19 - - -
22/06:00am - - - - - WNW 24 28 13 15 - - -
22/05:30am - - - - - WNW 19 26 10 14 - - -
22/05:00am - - - - - W 20 28 11 15 - - -
22/04:30am - - - - - W 20 26 11 14 - - -
22/04:00am - - - - - W 20 24 11 13 - - -
22/03:30am - - - - - W 20 26 11 14 - - -
22/03:00am - - - - - W 22 26 12 14 - - -
22/02:30am - - - - - W 20 26 11 14 - - -
22/02:00am - - - - - W 22 26 12 14 - - -
22/01:30am - - - - - W 22 28 12 15 - - -
22/01:00am - - - - - W 17 19 9 10 - - -
22/12:30am - - - - - W 17 20 9 11 - - -
22/12:00am - - - - - WSW 17 19 9 10 - - -
 
Date/Time
EST
Temp
°C
App
Temp
°C
Dew
Point
°C
Rel
Hum
%
Delta-T
°C
Wind Press
QNH
hPa
Press
MSL
hPa
Rain since
9am
mm
Dir  Spd
km/h
Gust
km/h
Spd
kts
Gust
kts
21/11:30pm - - - - - WSW 15 17 8 9 - - -
21/11:00pm - - - - - WSW 17 20 9 11 - - -
21/10:30pm - - - - - WSW 17 19 9 10 - - -
21/10:00pm - - - - - W 17 20 9 11 - - -
21/09:30pm - - - - - W 17 19 9 10 - - -
21/09:00pm - - - - - WSW 19 22 10 12 - - -
21/08:30pm - - - - - SW 15 22 8 12 - - -
21/08:00pm - - - - - WSW 19 24 10 13 - - -
21/07:30pm - - - - - WSW 15 32 8 17 - - -
21/07:00pm - - - - - S 26 44 14 24 - - -
21/06:57pm - - - - - S 30 44 16 24 - - -
21/06:30pm - - - - - S 37 46 20 25 - - -
21/06:00pm - - - - - S 37 48 20 26 - - -
21/05:30pm - - - - - S 37 48 20 26 - - -
21/05:00pm - - - - - S 39 48 21 26 - - -
21/04:30pm - - - - - S 43 52 23 28 - - -
21/04:00pm - - - - - S 41 52 22 28 - - -
21/03:30pm - - - - - S 43 52 23 28 - - -
21/03:00pm - - - - - S 44 56 24 30 - - -
21/02:30pm - - - - - S 41 52 22 28 - - -
21/02:00pm - - - - - S 37 48 20 26 - - -
21/01:30pm - - - - - S 37 48 20 26 - - -
21/01:19pm - - - - - SSE 33 52 18 28 - - -
21/01:00pm - - - - - S 43 52 23 28 - - -

Latest Capital City Observations: Canberra | Sydney | Melbourne | Brisbane | Adelaide | Perth | Hobart | Darwin

Other Formats:

Comma delimited format used in spreadsheet applications
http://www.bom.gov.au/fwo/IDN60901/IDN60901.95752.axf

JavaScript Object Notation format (JSON) in row-major order
http://www.bom.gov.au/fwo/IDN60901/IDN60901.95752.json